createdAt,value
2023-05-17T00:07:32.019Z,6.56
2023-05-17T00:17:34.280Z,6.05
2023-05-17T00:27:36.561Z,5.98
2023-05-17T00:37:38.667Z,6.26
2023-05-17T00:47:40.959Z,6.04
2023-05-17T00:57:43.192Z,6.13
2023-05-17T01:07:45.350Z,6.13
2023-05-17T01:17:59.107Z,5.63
2023-05-17T01:28:02.675Z,5.54
2023-05-17T01:38:04.789Z,5.42
2023-05-17T01:48:28.892Z,5.57
2023-05-17T01:58:40.631Z,5.24
2023-05-17T02:08:43.130Z,5.29
2023-05-17T02:18:45.573Z,5.07
2023-05-17T02:28:48.043Z,5.08
2023-05-17T02:38:50.662Z,5.10
2023-05-17T02:48:52.827Z,5.37
2023-05-17T02:58:57.485Z,5.19
2023-05-17T03:08:59.604Z,5.09
2023-05-17T03:19:02.119Z,5.15
2023-05-17T03:29:05.158Z,5.09
2023-05-17T03:39:07.976Z,5.45
2023-05-17T03:49:12.124Z,5.36
2023-05-17T03:59:15.842Z,5.79
2023-05-17T04:09:21.233Z,5.44
2023-05-17T04:19:23.676Z,5.84
2023-05-17T04:29:26.448Z,5.90
2023-05-17T04:39:30.746Z,6.16
2023-05-17T04:49:34.535Z,5.99
2023-05-17T04:59:37.597Z,6.22
2023-05-17T05:09:40.772Z,6.30
2023-05-17T05:19:45.732Z,6.57
2023-05-17T05:29:48.934Z,6.32
2023-05-17T05:39:52.588Z,6.16
2023-05-17T05:49:55.321Z,6.05
2023-05-17T05:59:59.452Z,6.05
2023-05-17T06:10:01.870Z,5.99
2023-05-17T06:20:05.176Z,6.79
2023-05-17T06:30:08.138Z,6.33
2023-05-17T06:40:16.604Z,6.95
2023-05-17T06:50:19.340Z,6.63
2023-05-17T07:00:22.037Z,7.11
2023-05-17T07:10:24.172Z,7.44
2023-05-17T07:20:26.329Z,7.69
2023-05-17T07:30:28.488Z,7.96
2023-05-17T07:40:30.717Z,8.09
2023-05-17T07:50:33.027Z,8.16
2023-05-17T08:00:35.166Z,7.83
2023-05-17T08:10:38.034Z,9.05
2023-05-17T08:20:40.216Z,9.42
2023-05-17T08:30:42.421Z,9.16
2023-05-17T08:40:44.537Z,8.68
2023-05-17T08:50:47.442Z,8.72
2023-05-17T09:00:50.044Z,8.12
2023-05-17T09:10:52.200Z,8.67
2023-05-17T09:20:54.335Z,9.66
2023-05-17T09:30:56.611Z,9.79
2023-05-17T09:41:02.534Z,9.89
2023-05-17T09:51:05.997Z,9.63
2023-05-17T10:01:09.726Z,9.40
2023-05-17T10:11:11.983Z,10.54
2023-05-17T10:21:14.438Z,9.45
2023-05-17T10:31:17.376Z,10.61
2023-05-17T10:41:21.891Z,9.82
2023-05-17T10:51:26.506Z,10.89
2023-05-17T11:02:00.832Z,10.42
2023-05-17T11:12:08.095Z,11.16
2023-05-17T11:22:12.291Z,10.40
2023-05-17T11:32:14.545Z,10.36
2023-05-17T11:42:25.340Z,11.78
2023-05-17T11:52:29.220Z,11.81
2023-05-17T12:02:32.388Z,11.52
2023-05-17T12:12:34.600Z,12.67
2023-05-17T12:22:54.937Z,12.78
2023-05-17T12:32:57.268Z,11.83
2023-05-17T12:43:05.855Z,12.74
2023-05-17T12:53:09.058Z,11.83
2023-05-17T13:03:11.656Z,12.23
2023-05-17T13:13:20.437Z,12.63
2023-05-17T13:23:22.600Z,12.04
2023-05-17T13:33:24.860Z,12.96
2023-05-17T13:43:27.157Z,12.59
2023-05-17T13:53:29.533Z,12.91
2023-05-17T14:03:31.882Z,12.97
2023-05-17T14:13:34.264Z,12.35
2023-05-17T14:23:36.406Z,12.88
2023-05-17T14:33:38.654Z,12.28
2023-05-17T14:43:40.950Z,13.18
2023-05-17T14:53:43.211Z,13.24
2023-05-17T15:03:45.446Z,12.80
2023-05-17T15:13:48.761Z,12.38
2023-05-17T15:23:51.087Z,12.84
2023-05-17T15:33:53.254Z,12.05
2023-05-17T15:43:55.429Z,12.41
2023-05-17T15:53:57.602Z,12.15
2023-05-17T16:03:59.836Z,11.09
2023-05-17T16:14:02.118Z,11.60
2023-05-17T16:24:06.510Z,11.44
2023-05-17T16:34:08.880Z,10.92
2023-05-17T16:44:11.140Z,11.36
2023-05-17T16:54:13.292Z,11.52
2023-05-17T17:04:15.604Z,11.06
2023-05-17T17:14:18.006Z,10.97
2023-05-17T17:24:20.426Z,11.26
2023-05-17T17:34:22.580Z,10.28
2023-05-17T17:44:24.755Z,10.14
2023-05-17T17:54:27.000Z,10.65
2023-05-17T18:04:29.180Z,10.61
2023-05-17T18:14:31.446Z,10.70
2023-05-17T18:24:33.602Z,9.94
2023-05-17T18:34:36.223Z,9.85
2023-05-17T18:44:41.368Z,9.97
2023-05-17T18:54:43.922Z,9.72
2023-05-17T19:04:46.151Z,9.37
2023-05-17T19:14:48.274Z,8.81
2023-05-17T19:24:50.728Z,8.99
2023-05-17T19:34:53.329Z,8.58
2023-05-17T19:44:55.607Z,8.15
2023-05-17T19:54:57.693Z,8.00
2023-05-17T20:05:02.192Z,7.56
2023-05-17T20:15:06.227Z,8.20
2023-05-17T20:25:08.934Z,7.43
2023-05-17T20:35:11.430Z,7.58
2023-05-17T20:45:17.739Z,7.22
2023-05-17T20:55:19.961Z,7.20
2023-05-17T21:05:22.032Z,6.76
2023-05-17T21:15:24.941Z,6.49
2023-05-17T21:25:27.124Z,6.64
2023-05-17T21:35:29.738Z,6.49
2023-05-17T21:45:31.906Z,6.24
2023-05-17T21:55:41.249Z,6.08
2023-05-17T22:05:56.233Z,6.26
2023-05-17T22:15:58.324Z,6.03
2023-05-17T22:26:00.664Z,5.54
2023-05-17T22:36:03.692Z,5.96
2023-05-17T22:46:06.197Z,5.60
2023-05-17T22:56:08.299Z,5.61
2023-05-17T23:06:10.694Z,5.55
2023-05-17T23:16:13.939Z,5.48
2023-05-17T23:26:17.192Z,5.57
2023-05-17T23:36:21.639Z,5.54
2023-05-17T23:46:23.843Z,4.67
2023-05-17T23:56:26.605Z,4.83
